Time;durP1;ratioP1;P1;durP2;ratioP2;P2;SDS_P1;SDS_P2;PMS_P1;PMS_P2;Temp;Humidity;BMP_temperature;BMP_pressure;BME280_temperature;BME280_humidity;BME280_pressure;Samples;Min_cycle;Max_cycle;Signal;HPM_P1;HPM_P2
2023/09/26 00:00:23;;;;;;;7.50;5.33;;;;;;;9.32;100.00;101156.31;5047226;28;20275;-71
2023/09/26 00:02:52;;;;;;;7.27;5.50;;;;;;;9.26;100.00;101160.50;5048959;28;20468;-70
2023/09/26 00:05:20;;;;;;;8.03;5.60;;;;;;;9.22;100.00;101154.25;5032040;28;20253;-70
2023/09/26 00:07:48;;;;;;;6.33;5.03;;;;;;;9.34;100.00;101159.91;5042110;28;20684;-70
2023/09/26 00:10:16;;;;;;;8.97;5.30;;;;;;;9.28;100.00;101151.78;5042443;28;20254;-70
2023/09/26 00:12:42;;;;;;;9.43;5.47;;;;;;;9.45;100.00;101152.28;5042167;28;20197;-70
2023/09/26 00:15:12;;;;;;;8.97;5.27;;;;;;;9.39;100.00;101157.38;5037447;28;20233;-70
2023/09/26 00:17:39;;;;;;;8.40;5.47;;;;;;;9.31;100.00;101154.53;5040016;28;20272;-70
2023/09/26 00:20:15;;;;;;;6.30;4.73;;;;;;;9.21;100.00;101154.19;5038359;28;20191;-70
2023/09/26 00:22:42;;;;;;;6.87;4.90;;;;;;;9.09;100.00;101158.22;5043101;28;20242;-70
2023/09/26 00:25:10;;;;;;;6.27;4.43;;;;;;;9.02;100.00;101150.06;5035114;28;20216;-70
2023/09/26 00:27:37;;;;;;;7.13;5.00;;;;;;;8.93;100.00;101155.94;5038047;28;20404;-70
2023/09/26 00:30:04;;;;;;;7.63;5.20;;;;;;;8.87;100.00;101144.31;5036178;28;20293;-70
2023/09/26 00:32:30;;;;;;;6.43;4.97;;;;;;;8.86;100.00;101142.50;5032866;28;20197;-70
2023/09/26 00:34:57;;;;;;;6.97;5.17;;;;;;;8.94;100.00;101154.22;5044917;28;20234;-70
2023/09/26 00:37:23;;;;;;;8.00;5.47;;;;;;;8.94;100.00;101147.19;5038814;28;20229;-70
2023/09/26 00:39:50;;;;;;;7.47;5.10;;;;;;;8.93;100.00;101150.66;5045026;28;20202;-70
2023/09/26 00:42:16;;;;;;;8.40;5.43;;;;;;;9.00;100.00;101154.41;5038862;28;20605;-70
2023/09/26 00:44:42;;;;;;;7.20;4.90;;;;;;;8.98;100.00;101157.00;5039230;28;20575;-70
2023/09/26 00:47:09;;;;;;;9.17;5.60;;;;;;;9.06;100.00;101155.47;5034943;28;20218;-70
2023/09/26 00:49:36;;;;;;;8.70;5.57;;;;;;;9.14;100.00;101158.38;5041138;28;20308;-70
2023/09/26 00:52:04;;;;;;;8.67;5.20;;;;;;;9.17;100.00;101163.75;5038546;28;20284;-70
2023/09/26 00:54:32;;;;;;;7.07;4.90;;;;;;;9.06;100.00;101168.69;5043176;28;20241;-70
2023/09/26 00:56:58;;;;;;;8.73;5.37;;;;;;;8.93;100.00;101162.97;5042589;28;20231;-70
2023/09/26 00:59:25;;;;;;;7.40;5.40;;;;;;;8.90;100.00;101166.41;5030034;28;20223;-70
2023/09/26 01:01:53;;;;;;;6.83;5.10;;;;;;;8.84;100.00;101160.06;5039497;28;20300;-70
2023/09/26 01:04:22;;;;;;;7.47;5.20;;;;;;;8.74;100.00;101165.00;5040689;28;20216;-70
2023/09/26 01:06:49;;;;;;;8.73;5.50;;;;;;;8.72;100.00;101171.97;5033865;28;20231;-70
2023/09/26 01:09:15;;;;;;;7.63;5.27;;;;;;;8.64;100.00;101156.72;5038084;28;20985;-70
2023/09/26 01:11:43;;;;;;;7.20;5.20;;;;;;;8.56;100.00;101156.47;5032088;28;20204;-70
2023/09/26 01:14:09;;;;;;;7.33;5.10;;;;;;;8.54;100.00;101158.19;5039780;28;20578;-70
2023/09/26 01:16:36;;;;;;;7.37;5.37;;;;;;;8.56;100.00;101153.84;5035615;28;20220;-69
2023/09/26 01:19:02;;;;;;;8.13;5.50;;;;;;;8.69;100.00;101152.50;5040094;28;20190;-70
2023/09/26 01:21:29;;;;;;;8.70;5.90;;;;;;;8.83;100.00;101156.50;5032482;28;20290;-70
2023/09/26 01:23:58;;;;;;;8.77;5.87;;;;;;;8.87;100.00;101146.94;5038152;28;20196;-70
2023/09/26 01:26:25;;;;;;;7.93;5.50;;;;;;;8.92;100.00;101153.25;5039700;28;20217;-70
2023/09/26 01:28:51;;;;;;;7.47;5.67;;;;;;;8.83;100.00;101147.69;5031157;28;20230;-70
2023/09/26 01:31:18;;;;;;;8.57;5.93;;;;;;;8.78;100.00;101147.50;5038908;28;20195;-70
2023/09/26 01:33:44;;;;;;;9.87;6.30;;;;;;;8.81;100.00;101150.28;5036935;28;20227;-70
2023/09/26 01:36:11;;;;;;;8.00;5.80;;;;;;;8.69;100.00;101141.94;5043222;28;20646;-70
2023/09/26 01:38:37;;;;;;;14.77;5.90;;;;;;;8.68;100.00;101141.03;5037280;28;20222;-70
2023/09/26 01:41:03;;;;;;;8.33;5.83;;;;;;;8.63;100.00;101150.56;5036415;28;20566;-70
2023/09/26 01:43:30;;;;;;;9.13;5.73;;;;;;;8.62;100.00;101140.84;5042622;28;20204;-70
2023/09/26 01:45:59;;;;;;;10.80;6.10;;;;;;;8.60;100.00;101142.53;5035195;28;20223;-70
2023/09/26 01:48:25;;;;;;;9.47;6.07;;;;;;;8.64;100.00;101138.25;5044200;28;20229;-70
2023/09/26 01:50:52;;;;;;;8.63;6.00;;;;;;;8.64;100.00;101136.50;5042149;28;20212;-70
2023/09/26 01:53:18;;;;;;;10.20;6.13;;;;;;;8.57;100.00;101136.25;5036845;28;20276;-71
2023/09/26 01:55:45;;;;;;;8.83;5.80;;;;;;;8.56;100.00;101137.09;5038434;28;20710;-70
2023/09/26 01:58:11;;;;;;;6.53;5.27;;;;;;;8.50;100.00;101132.53;5041407;28;20737;-70
2023/09/26 02:00:37;;;;;;;8.60;5.93;;;;;;;8.52;100.00;101135.22;5042307;28;20272;-70
2023/09/26 02:03:04;;;;;;;6.87;5.40;;;;;;;8.46;100.00;101135.91;5033932;28;20577;-70
2023/09/26 02:05:30;;;;;;;8.00;5.50;;;;;;;8.37;100.00;101133.81;5030153;28;20213;-70
2023/09/26 02:07:59;;;;;;;9.70;5.90;;;;;;;8.31;100.00;101140.59;5041327;28;20222;-70
2023/09/26 02:10:26;;;;;;;8.87;5.80;;;;;;;8.34;100.00;101136.38;5045850;28;20754;-70
2023/09/26 02:12:52;;;;;;;9.53;5.93;;;;;;;8.36;100.00;101134.69;5044540;28;20202;-70
2023/09/26 02:15:19;;;;;;;8.57;6.03;;;;;;;8.34;100.00;101135.47;5044302;28;20337;-71
2023/09/26 02:17:45;;;;;;;9.80;5.80;;;;;;;8.29;100.00;101126.47;5033307;28;20210;-71
2023/09/26 02:20:15;;;;;;;9.77;6.30;;;;;;;8.32;100.00;101130.09;5040012;28;20197;-70
2023/09/26 02:22:49;;;;;;;8.37;6.10;;;;;;;8.26;100.00;101127.25;5042166;28;20254;-70
2023/09/26 02:25:20;;;;;;;7.83;5.97;;;;;;;8.26;100.00;101121.97;5040876;28;20222;-70
2023/09/26 02:27:48;;;;;;;9.00;6.17;;;;;;;8.33;100.00;101121.38;5042233;28;20279;-71
2023/09/26 02:30:17;;;;;;;8.47;5.93;;;;;;;8.27;100.00;101123.78;5046201;28;20195;-70
2023/09/26 02:32:43;;;;;;;7.30;5.53;;;;;;;8.19;100.00;101130.53;5040153;28;20196;-70
2023/09/26 02:35:15;;;;;;;9.60;5.70;;;;;;;8.16;100.00;101127.78;5043305;28;20731;-70
2023/09/26 02:37:43;;;;;;;8.73;5.73;;;;;;;8.10;100.00;101128.47;5044749;28;20200;-70
2023/09/26 02:40:10;;;;;;;8.23;5.83;;;;;;;8.07;100.00;101124.84;5039267;28;20198;-70
2023/09/26 02:42:38;;;;;;;8.93;5.83;;;;;;;8.12;100.00;101123.25;5040706;28;20734;-71
2023/09/26 02:45:05;;;;;;;11.13;6.17;;;;;;;8.37;100.00;101122.38;5037847;28;20246;-70
2023/09/26 02:47:31;;;;;;;9.77;6.03;;;;;;;8.39;100.00;101120.69;5040336;28;20212;-70
2023/09/26 02:49:58;;;;;;;8.33;5.70;;;;;;;8.31;100.00;101117.75;5045283;28;20308;-70
2023/09/26 02:52:25;;;;;;;12.07;6.20;;;;;;;8.39;100.00;101112.75;5041898;28;20202;-69
2023/09/26 02:54:52;;;;;;;8.83;6.10;;;;;;;8.44;100.00;101114.75;5033698;28;20233;-71
2023/09/26 02:57:21;;;;;;;9.50;6.67;;;;;;;8.35;100.00;101109.13;5043983;28;20265;-70
2023/09/26 02:59:48;;;;;;;9.17;6.23;;;;;;;8.20;100.00;101107.69;5042903;28;20198;-70
2023/09/26 03:02:15;;;;;;;8.17;5.57;;;;;;;8.05;100.00;101111.59;5043708;28;20210;-71
2023/09/26 03:04:41;;;;;;;10.20;5.97;;;;;;;7.99;100.00;101113.09;5039395;28;20195;-71
2023/09/26 03:07:08;;;;;;;8.73;5.67;;;;;;;7.90;100.00;101115.41;5041124;28;20198;-71
2023/09/26 03:09:34;;;;;;;10.53;5.90;;;;;;;7.87;100.00;101116.22;5037277;28;20296;-70
2023/09/26 03:12:01;;;;;;;8.77;5.90;;;;;;;7.84;100.00;101114.34;5043851;28;20246;-70
2023/09/26 03:14:27;;;;;;;10.43;6.33;;;;;;;7.82;100.00;101117.78;5048038;28;20198;-70
2023/09/26 03:16:54;;;;;;;7.90;5.63;;;;;;;7.81;100.00;101113.34;5035871;28;20232;-70
2023/09/26 03:19:23;;;;;;;13.43;6.73;;;;;;;8.00;100.00;101118.44;5043377;28;20195;-70
2023/09/26 03:21:50;;;;;;;10.43;6.67;;;;;;;8.18;100.00;101105.00;5044930;28;20197;-71
2023/09/26 03:24:20;;;;;;;9.60;6.27;;;;;;;8.26;100.00;101108.78;5042468;28;20724;-71
2023/09/26 03:26:46;;;;;;;9.23;6.47;;;;;;;8.18;100.00;101102.34;5036870;28;20223;-71
2023/09/26 03:29:13;;;;;;;10.90;6.57;;;;;;;8.06;100.00;101109.84;5028560;28;20235;-70
2023/09/26 03:31:41;;;;;;;10.97;6.80;;;;;;;8.03;100.00;101107.13;5042001;28;20205;-70
2023/09/26 03:34:09;;;;;;;9.60;6.37;;;;;;;7.89;100.00;101108.34;5037220;28;20269;-70
2023/09/26 03:36:36;;;;;;;8.43;5.97;;;;;;;7.96;100.00;101118.25;5044638;28;20217;-70
2023/09/26 03:39:03;;;;;;;8.27;5.73;;;;;;;7.92;100.00;101113.72;5039499;28;20200;-71
2023/09/26 03:41:33;;;;;;;7.57;5.57;;;;;;;7.85;100.00;101110.88;5032505;28;20208;-70
2023/09/26 03:43:59;;;;;;;7.90;5.90;;;;;;;7.80;100.00;101115.09;5036045;28;20194;-71
2023/09/26 03:46:25;;;;;;;9.30;6.20;;;;;;;7.86;100.00;101114.41;5040839;28;20517;-71
2023/09/26 03:48:52;;;;;;;8.50;5.97;;;;;;;7.91;100.00;101111.94;5045251;28;20258;-71
2023/09/26 03:51:19;;;;;;;11.43;6.37;;;;;;;7.92;100.00;101112.00;5039472;28;20195;-70
2023/09/26 03:53:45;;;;;;;9.73;6.17;;;;;;;7.96;100.00;101108.59;5039934;28;20203;-71
2023/09/26 03:56:12;;;;;;;8.60;5.87;;;;;;;7.97;100.00;101109.50;5033506;28;20225;-71
2023/09/26 03:58:39;;;;;;;8.53;5.50;;;;;;;7.91;100.00;101111.94;5037460;28;20191;-71
2023/09/26 04:01:16;;;;;;;10.53;6.47;;;;;;;7.88;100.00;101102.19;5034474;28;20298;-70
2023/09/26 04:03:46;;;;;;;8.60;6.07;;;;;;;7.96;100.00;101105.06;5035199;28;20562;-71
2023/09/26 04:06:13;;;;;;;9.73;6.10;;;;;;;8.07;100.00;101103.75;5038235;28;20255;-71
2023/09/26 04:08:39;;;;;;;9.70;6.70;;;;;;;7.99;100.00;101099.91;5036235;28;20220;-71
2023/09/26 04:11:11;;;;;;;11.97;6.03;;;;;;;7.97;100.00;101099.84;5042294;28;20204;-70
2023/09/26 04:13:37;;;;;;;11.57;6.30;;;;;;;8.06;100.00;101115.13;5033446;28;20195;-71
2023/09/26 04:16:05;;;;;;;11.30;7.43;;;;;;;8.14;100.00;101098.72;5032419;28;20227;-71
2023/09/26 04:18:32;;;;;;;16.97;7.03;;;;;;;8.21;100.00;101093.66;5039369;28;20286;-71
2023/09/26 04:21:02;;;;;;;13.33;7.27;;;;;;;8.23;100.00;101099.88;5039857;28;20213;-71
2023/09/26 04:23:28;;;;;;;11.97;7.30;;;;;;;8.30;100.00;101094.84;5037247;28;20202;-70
2023/09/26 04:25:55;;;;;;;12.23;7.03;;;;;;;8.27;100.00;101097.38;5034879;28;20226;-71
2023/09/26 04:28:21;;;;;;;11.87;7.20;;;;;;;8.25;100.00;101092.91;5040114;28;20689;-71
2023/09/26 04:30:47;;;;;;;11.40;7.03;;;;;;;8.24;100.00;101086.72;5043609;28;20207;-71
2023/09/26 04:33:15;;;;;;;13.77;7.13;;;;;;;8.31;100.00;101093.09;5044467;28;20205;-71
2023/09/26 04:35:42;;;;;;;11.57;7.43;;;;;;;8.26;100.00;101089.41;5039731;28;20309;-71
2023/09/26 04:38:09;;;;;;;11.23;6.70;;;;;;;8.15;100.00;101089.97;5040886;28;20203;-71
2023/09/26 04:40:36;;;;;;;13.03;7.73;;;;;;;8.18;100.00;101086.53;5041706;28;20198;-71
2023/09/26 04:43:04;;;;;;;11.87;6.97;;;;;;;8.21;100.00;101085.72;5041736;28;20195;-71
2023/09/26 04:45:31;;;;;;;12.27;7.57;;;;;;;8.20;100.00;101091.84;5036888;28;20649;-71
2023/09/26 04:48:01;;;;;;;12.67;7.33;;;;;;;8.23;100.00;101086.69;5031195;28;20199;-71
2023/09/26 04:50:29;;;;;;;12.20;7.57;;;;;;;8.20;100.00;101083.94;5036830;28;20218;-71
2023/09/26 04:52:57;;;;;;;10.27;6.67;;;;;;;8.21;100.00;101094.53;5036552;28;20284;-72
2023/09/26 04:55:24;;;;;;;10.60;6.77;;;;;;;8.36;100.00;101087.16;5044352;28;20228;-71
2023/09/26 04:57:50;;;;;;;12.77;8.13;;;;;;;8.43;100.00;101105.03;5040118;28;20201;-71
2023/09/26 05:00:17;;;;;;;12.00;7.53;;;;;;;8.54;100.00;101097.47;5035820;28;20198;-71
2023/09/26 05:02:44;;;;;;;12.30;7.33;;;;;;;8.46;100.00;101098.97;5030235;28;21461;-71
2023/09/26 05:05:12;;;;;;;12.17;7.30;;;;;;;8.50;100.00;101099.94;5026233;28;20215;-70
2023/09/26 05:07:41;;;;;;;11.07;7.37;;;;;;;8.39;100.00;101104.84;5033364;28;20253;-70
2023/09/26 05:10:08;;;;;;;13.73;8.33;;;;;;;8.27;100.00;101097.38;5034270;28;20226;-70
2023/09/26 05:12:40;;;;;;;11.80;7.43;;;;;;;8.24;100.00;101093.75;5029854;28;20198;-70
2023/09/26 05:15:12;;;;;;;11.60;7.67;;;;;;;8.18;100.00;101097.09;5028186;28;20230;-70
2023/09/26 05:17:52;;;;;;;12.87;7.93;;;;;;;8.20;100.00;101102.41;5030662;28;20200;-70
2023/09/26 05:20:19;;;;;;;13.27;7.97;;;;;;;8.26;100.00;101110.53;5033035;28;20540;-71
2023/09/26 05:22:47;;;;;;;13.70;8.17;;;;;;;8.21;100.00;101107.75;5037847;28;20199;-70
2023/09/26 05:25:14;;;;;;;14.27;8.20;;;;;;;8.24;100.00;101101.66;5026352;28;20219;-74
2023/09/26 05:27:41;;;;;;;11.23;7.30;;;;;;;8.17;100.00;101101.47;5032086;28;20198;-74
2023/09/26 05:30:11;;;;;;;15.87;8.07;;;;;;;8.16;100.00;101106.69;5043910;28;20635;-73
2023/09/26 05:32:39;;;;;;;12.17;8.07;;;;;;;8.17;100.00;101104.09;5037580;28;20203;-73
2023/09/26 05:35:07;;;;;;;11.90;7.47;;;;;;;8.18;100.00;101105.00;5042888;28;20219;-73
2023/09/26 05:37:34;;;;;;;12.63;7.87;;;;;;;8.18;100.00;101111.16;5041441;28;20470;-73
2023/09/26 05:40:06;;;;;;;13.97;8.20;;;;;;;8.17;100.00;101106.75;5053842;28;20258;-75
2023/09/26 05:42:34;;;;;;;12.20;7.00;;;;;;;8.11;100.00;101110.91;5047868;28;20195;-74
2023/09/26 05:45:02;;;;;;;12.90;7.93;;;;;;;8.08;100.00;101110.81;5048999;28;20644;-74
2023/09/26 05:47:29;;;;;;;11.17;7.27;;;;;;;8.04;100.00;101115.09;5045926;28;20220;-74
2023/09/26 05:49:55;;;;;;;12.83;7.17;;;;;;;8.06;100.00;101117.78;5045947;28;20303;-74
2023/09/26 05:52:22;;;;;;;12.97;8.00;;;;;;;8.13;100.00;101114.50;5049393;28;20199;-74
2023/09/26 05:54:48;;;;;;;14.13;8.13;;;;;;;8.20;100.00;101108.59;5048967;28;20196;-73
2023/09/26 05:57:15;;;;;;;13.57;8.50;;;;;;;8.24;100.00;101110.47;5047854;28;20660;-74
2023/09/26 05:59:41;;;;;;;13.47;7.87;;;;;;;8.27;100.00;101107.94;5046209;28;20282;-75
2023/09/26 06:02:13;;;;;;;12.23;7.93;;;;;;;8.36;100.00;101105.66;5044616;28;20574;-75
2023/09/26 06:04:43;;;;;;;13.20;7.73;;;;;;;8.42;100.00;101115.53;5042231;28;20200;-75
2023/09/26 06:07:10;;;;;;;13.37;8.90;;;;;;;8.43;100.00;101119.97;5042589;28;20253;-75
2023/09/26 06:09:37;;;;;;;15.50;7.87;;;;;;;8.43;100.00;101120.88;5048973;28;20294;-75
2023/09/26 06:12:15;;;;;;;14.53;8.50;;;;;;;8.50;100.00;101119.31;5049211;28;20286;-75
2023/09/26 06:14:41;;;;;;;16.50;8.43;;;;;;;8.57;100.00;101105.47;5049225;28;20192;-74
2023/09/26 06:17:10;;;;;;;14.53;8.37;;;;;;;8.69;100.00;101112.88;5043073;28;20227;-75
2023/09/26 06:19:37;;;;;;;15.63;8.87;;;;;;;8.94;100.00;101118.13;5048088;28;20194;-74
2023/09/26 06:22:03;;;;;;;18.30;9.43;;;;;;;9.05;100.00;101122.00;5050339;28;20206;-75
2023/09/26 06:24:30;;;;;;;17.43;10.03;;;;;;;9.28;100.00;101117.44;5042898;28;20203;-74
2023/09/26 06:26:56;;;;;;;18.50;9.90;;;;;;;9.35;100.00;101119.41;5037698;28;20220;-75
2023/09/26 06:29:22;;;;;;;17.97;9.70;;;;;;;9.54;100.00;101123.47;5043265;28;20255;-73
2023/09/26 06:31:49;;;;;;;23.00;10.70;;;;;;;9.60;100.00;101123.63;5042298;28;20594;-74
2023/09/26 06:34:15;;;;;;;22.10;10.00;;;;;;;9.72;100.00;101125.75;5045172;28;20725;-73
2023/09/26 06:36:42;;;;;;;18.67;10.87;;;;;;;9.92;100.00;101135.13;5032005;28;20227;-74
2023/09/26 06:39:11;;;;;;;20.20;10.90;;;;;;;9.98;100.00;101129.13;5033801;28;20206;-73
2023/09/26 06:41:38;;;;;;;20.80;11.63;;;;;;;9.97;100.00;101125.56;5034497;28;20200;-74
2023/09/26 06:44:04;;;;;;;23.57;10.73;;;;;;;10.01;100.00;101129.22;5034220;28;20209;-73
2023/09/26 06:46:31;;;;;;;17.77;10.20;;;;;;;10.03;100.00;101123.13;5031478;28;20228;-73
2023/09/26 06:48:58;;;;;;;19.60;10.10;;;;;;;10.11;100.00;101130.38;5034575;28;20202;-73
2023/09/26 06:51:25;;;;;;;23.47;11.33;;;;;;;10.22;100.00;101123.63;5036449;28;20228;-73
2023/09/26 06:53:51;;;;;;;23.10;11.70;;;;;;;10.27;100.00;101130.84;5037197;28;20231;-73
2023/09/26 06:56:18;;;;;;;19.43;11.13;;;;;;;10.29;100.00;101130.88;5040986;28;20225;-70
2023/09/26 06:58:44;;;;;;;17.40;10.43;;;;;;;10.34;100.00;101129.25;5037926;28;20215;-70
2023/09/26 07:01:14;;;;;;;19.93;11.43;;;;;;;10.42;100.00;101122.44;5046707;28;20305;-71
2023/09/26 07:03:41;;;;;;;18.40;11.18;;;;;;;10.45;100.00;101124.25;5037110;28;20867;-70
2023/09/26 07:06:10;;;;;;;22.77;11.53;;;;;;;10.39;100.00;101132.91;5037992;28;20235;-69
2023/09/26 07:08:37;;;;;;;16.80;11.00;;;;;;;10.31;100.00;101127.41;5037844;28;20256;-70
2023/09/26 07:11:05;;;;;;;17.30;11.00;;;;;;;10.24;100.00;101127.22;5039665;28;20741;-70
2023/09/26 07:13:34;;;;;;;21.47;11.87;;;;;;;10.25;100.00;101129.91;5038795;28;20589;-70
2023/09/26 07:16:14;;;;;;;18.37;10.43;;;;;;;10.35;100.00;101124.00;5040897;28;20217;-70
2023/09/26 07:18:41;;;;;;;17.87;10.80;;;;;;;10.44;100.00;101120.72;5039276;28;20198;-70
2023/09/26 07:21:07;;;;;;;18.73;10.80;;;;;;;10.56;100.00;101120.13;5036571;28;20194;-70
2023/09/26 07:23:36;;;;;;;19.20;11.73;;;;;;;10.58;100.00;101118.41;5038286;28;20203;-70
2023/09/26 07:26:12;;;;;;;20.43;11.70;;;;;;;10.63;100.00;101112.34;5037484;28;20220;-71
2023/09/26 07:28:42;;;;;;;19.43;11.40;;;;;;;10.76;100.00;101112.66;5035339;28;20225;-69
2023/09/26 07:31:10;;;;;;;20.17;11.23;;;;;;;10.90;100.00;101116.53;5036846;28;20269;-70
2023/09/26 07:33:38;;;;;;;18.97;11.63;;;;;;;11.04;100.00;101119.50;5040697;28;20289;-70
2023/09/26 07:36:06;;;;;;;19.03;11.50;;;;;;;11.11;100.00;101111.72;5036067;28;20308;-69
2023/09/26 07:38:33;;;;;;;19.40;10.63;;;;;;;11.22;100.00;101112.88;5041112;28;20294;-68
2023/09/26 07:41:00;;;;;;;17.37;10.63;;;;;;;11.28;100.00;101115.66;5039334;28;20188;-70
2023/09/26 07:43:32;;;;;;;16.80;10.87;;;;;;;11.39;100.00;101118.53;5037450;28;20200;-70
2023/09/26 07:46:06;;;;;;;16.23;10.23;;;;;;;11.47;100.00;101118.69;5033449;28;20317;-70
2023/09/26 07:48:34;;;;;;;19.17;10.00;;;;;;;11.61;100.00;101118.16;5037162;28;20194;-69
2023/09/26 07:51:05;;;;;;;15.07;9.70;;;;;;;11.75;100.00;101120.19;5041474;28;20487;-70
2023/09/26 07:53:32;;;;;;;15.90;9.63;;;;;;;11.89;100.00;101116.97;5044564;28;20205;-70
2023/09/26 07:55:58;;;;;;;15.27;9.10;;;;;;;12.06;100.00;101113.75;5043335;28;20231;-71
2023/09/26 07:58:25;;;;;;;13.97;8.90;;;;;;;12.21;100.00;101111.38;5041705;28;20238;-71
2023/09/26 08:01:00;;;;;;;14.47;9.07;;;;;;;12.43;100.00;101117.97;5032953;28;20280;-73
2023/09/26 08:03:27;;;;;;;14.90;8.60;;;;;;;12.61;100.00;101115.63;5037844;28;20204;-74
2023/09/26 08:06:05;;;;;;;14.13;8.27;;;;;;;12.75;100.00;101110.53;5037150;28;20219;-80
2023/09/26 08:08:32;;;;;;;14.10;7.60;;;;;;;12.88;100.00;101108.97;5035720;28;20213;-80
2023/09/26 08:11:18;;;;;;;11.93;7.67;;;;;;;13.08;100.00;101111.03;5038040;28;20741;-81
2023/09/26 08:13:45;;;;;;;11.70;7.43;;;;;;;13.26;100.00;101110.47;5034982;28;20237;-80
2023/09/26 08:16:11;;;;;;;9.50;6.50;;;;;;;13.46;100.00;101110.72;5035323;28;20692;-79
2023/09/26 08:18:38;;;;;;;9.63;6.37;;;;;;;13.62;100.00;101110.06;5035631;28;20219;-75
2023/09/26 08:21:05;;;;;;;8.73;5.90;;;;;;;13.77;100.00;101104.91;5035655;28;20223;-75
2023/09/26 08:23:32;;;;;;;7.60;5.20;;;;;;;13.85;100.00;101107.66;5036346;28;20195;-73
2023/09/26 08:26:03;;;;;;;6.47;5.07;;;;;;;13.95;100.00;101106.88;5034197;28;20257;-73
2023/09/26 08:28:30;;;;;;;9.57;5.30;;;;;;;14.00;100.00;101107.81;5040680;28;20211;-74
2023/09/26 08:31:03;;;;;;;10.93;5.70;;;;;;;14.04;100.00;101104.34;5032355;28;20302;-75
2023/09/26 08:33:30;;;;;;;9.77;6.23;;;;;;;14.14;100.00;101109.75;5038475;28;20196;-73
2023/09/26 08:35:57;;;;;;;8.70;5.40;;;;;;;14.30;100.00;101106.38;5036801;28;20246;-72
2023/09/26 08:38:23;;;;;;;8.10;5.23;;;;;;;14.46;100.00;101103.00;5033319;28;20195;-71
2023/09/26 08:40:51;;;;;;;7.30;5.07;;;;;;;14.65;100.00;101096.06;5040685;28;20665;-73
2023/09/26 08:43:26;;;;;;;9.57;5.90;;;;;;;14.80;100.00;101095.25;5034146;28;20200;-73
2023/09/26 08:45:53;;;;;;;6.97;5.20;;;;;;;14.83;100.00;101098.00;5040964;28;20230;-72
2023/09/26 08:48:20;;;;;;;8.07;5.33;;;;;;;15.02;100.00;101092.78;5031315;28;20196;-74
2023/09/26 08:50:49;;;;;;;9.13;6.27;;;;;;;15.17;100.00;101091.97;5034992;28;20511;-72
2023/09/26 08:53:15;;;;;;;11.13;6.10;;;;;;;15.33;100.00;101092.97;5038277;28;20202;-71
2023/09/26 08:55:43;;;;;;;8.73;6.23;;;;;;;15.55;100.00;101093.94;5029421;28;20215;-72
2023/09/26 08:58:10;;;;;;;10.43;7.13;;;;;;;15.76;100.00;101098.53;5031794;28;20215;-73
2023/09/26 09:00:37;;;;;;;12.07;6.60;;;;;;;16.03;100.00;101095.06;5038126;28;20199;-72
2023/09/26 09:03:03;;;;;;;11.40;6.87;;;;;;;16.20;100.00;101091.53;5037782;28;20640;-71
2023/09/26 09:05:30;;;;;;;9.37;6.13;;;;;;;16.33;100.00;101094.19;5038706;28;20231;-71
2023/09/26 09:07:56;;;;;;;10.30;5.93;;;;;;;16.37;100.00;101083.50;5042107;28;20209;-71
2023/09/26 09:10:23;;;;;;;8.80;6.03;;;;;;;16.61;100.00;101079.97;5037146;28;20215;-72
2023/09/26 09:13:01;;;;;;;9.50;5.97;;;;;;;16.77;100.00;101070.16;5035800;28;20206;-71
2023/09/26 09:15:30;;;;;;;9.67;6.13;;;;;;;16.99;100.00;101073.72;5037738;28;20218;-71
2023/09/26 09:17:57;;;;;;;10.83;6.80;;;;;;;17.17;100.00;101077.22;5035111;28;20583;-70
2023/09/26 09:20:30;;;;;;;10.07;6.20;;;;;;;17.28;100.00;101076.34;5043271;28;20192;-71
2023/09/26 09:23:00;;;;;;;8.07;5.00;;;;;;;17.49;100.00;101071.78;5035930;28;20250;-71
2023/09/26 09:25:32;;;;;;;8.93;5.33;;;;;;;17.69;100.00;101070.84;5039331;28;20535;-72
2023/09/26 09:27:59;;;;;;;7.23;5.00;;;;;;;17.83;100.00;101069.88;5036110;28;20206;-71
2023/09/26 09:30:26;;;;;;;9.37;5.30;;;;;;;18.03;100.00;101069.78;5032889;28;20258;-71
2023/09/26 09:32:53;;;;;;;6.83;5.17;;;;;;;18.16;100.00;101066.09;5036132;28;20340;-70
2023/09/26 09:35:19;;;;;;;6.47;4.90;;;;;;;18.30;100.00;101055.28;5033018;28;20215;-71
2023/09/26 09:37:50;;;;;;;7.17;4.80;;;;;;;18.47;100.00;101066.78;5031888;28;20199;-71
2023/09/26 09:40:19;;;;;;;6.45;4.53;;;;;;;18.64;100.00;101058.59;5034518;28;20244;-71
2023/09/26 09:42:48;;;;;;;7.13;4.50;;;;;;;18.84;100.00;101063.81;5038890;28;20596;-72
2023/09/26 09:45:16;;;;;;;7.40;4.78;;;;;;;19.00;100.00;101062.72;5031426;28;20226;-71
2023/09/26 09:47:46;;;;;;;8.15;5.00;;;;;;;19.08;100.00;101058.16;5033917;28;20203;-71
2023/09/26 09:50:14;;;;;;;7.88;5.00;;;;;;;19.19;100.00;101058.03;5040413;28;20402;-71
2023/09/26 09:52:44;;;;;;;6.65;5.13;;;;;;;19.47;100.00;101055.94;5034505;28;20232;-71
2023/09/26 09:55:23;;;;;;;6.10;4.57;;;;;;;19.67;99.54;101045.84;5036967;28;20234;-72
2023/09/26 09:57:50;;;;;;;7.20;5.25;;;;;;;19.84;94.22;101055.47;5031515;28;20225;-71
2023/09/26 10:00:20;;;;;;;7.30;5.32;;;;;;;19.92;89.23;101053.56;5034486;28;20246;-71
2023/09/26 10:02:46;;;;;;;6.78;5.30;;;;;;;19.93;91.73;101050.84;5032988;28;20208;-70
2023/09/26 10:05:14;;;;;;;6.22;4.65;;;;;;;20.06;90.32;101042.63;5039256;28;20218;-69
2023/09/26 10:07:43;;;;;;;7.15;5.18;;;;;;;20.18;89.31;101046.00;5029341;28;20664;-70
2023/09/26 10:10:11;;;;;;;8.20;4.90;;;;;;;20.30;91.12;101047.59;5037733;28;20268;-72
2023/09/26 10:12:39;;;;;;;8.32;5.70;;;;;;;20.36;85.52;101042.13;5031315;28;20230;-72
2023/09/26 10:15:16;;;;;;;6.18;4.55;;;;;;;20.41;87.28;101050.16;5030886;28;20223;-71
2023/09/26 10:17:46;;;;;;;8.20;5.15;;;;;;;20.47;86.25;101050.97;5030268;28;20195;-72
2023/09/26 10:20:14;;;;;;;6.80;4.60;;;;;;;20.56;86.09;101044.53;5038183;28;20195;-72
2023/09/26 10:23:10;;;;;;;8.95;4.97;;;;;;;20.70;85.17;101037.09;5041364;28;20198;-74
2023/09/26 10:25:37;;;;;;;7.60;5.03;;;;;;;20.81;82.97;101031.50;5034168;28;20675;-72
2023/09/26 10:28:04;;;;;;;7.93;5.57;;;;;;;20.90;83.79;101020.59;5037687;28;20246;-72
2023/09/26 10:30:43;;;;;;;9.15;4.70;;;;;;;21.07;85.68;101031.91;5036339;28;20590;-71
2023/09/26 10:33:11;;;;;;;7.50;4.45;;;;;;;21.10;80.11;101020.19;5041529;28;20202;-72
2023/09/26 10:36:01;;;;;;;8.07;4.68;;;;;;;21.27;80.49;101020.78;5043584;28;20717;-71
2023/09/26 10:38:27;;;;;;;7.72;5.80;;;;;;;21.35;79.34;101012.53;5041076;28;20210;-72
2023/09/26 10:40:55;;;;;;;7.38;4.78;;;;;;;21.46;78.12;101019.47;5035618;28;20202;-72
2023/09/26 10:43:21;;;;;;;9.57;4.75;;;;;;;21.50;78.26;101014.91;5037540;28;20291;-69
2023/09/26 10:45:50;;;;;;;8.05;5.18;;;;;;;21.59;75.45;101012.00;5036140;28;20239;-68
2023/09/26 10:48:18;;;;;;;6.82;4.38;;;;;;;21.63;75.55;101018.25;5042923;28;20203;-71
2023/09/26 10:50:45;;;;;;;5.80;4.22;;;;;;;21.73;76.33;101003.63;5035096;28;20224;-69
2023/09/26 10:53:12;;;;;;;7.57;4.65;;;;;;;21.79;74.05;101016.97;5035038;28;20219;-70
2023/09/26 10:55:40;;;;;;;6.25;4.60;;;;;;;21.97;72.92;101016.53;5035212;28;20269;-70
2023/09/26 10:58:06;;;;;;;9.27;5.03;;;;;;;22.00;72.02;101011.06;5031430;28;20200;-70
2023/09/26 11:00:33;;;;;;;6.57;4.13;;;;;;;22.06;70.45;101016.38;5041544;28;20195;-70
2023/09/26 11:02:59;;;;;;;7.85;4.47;;;;;;;22.16;73.10;101008.94;5036341;28;20203;-70
2023/09/26 11:05:31;;;;;;;8.93;5.97;;;;;;;22.17;69.28;101011.59;5040181;28;20258;-70
2023/09/26 11:07:58;;;;;;;7.43;5.20;;;;;;;22.21;69.59;101009.72;5036731;28;20985;-70
2023/09/26 11:10:25;;;;;;;7.22;4.45;;;;;;;22.18;69.77;101017.88;5034064;28;20465;-70
2023/09/26 11:12:52;;;;;;;8.52;5.18;;;;;;;22.11;70.71;101008.16;5034510;28;20290;-69
2023/09/26 11:15:18;;;;;;;6.28;4.35;;;;;;;22.14;70.24;101005.41;5036290;28;20211;-68
2023/09/26 11:17:48;;;;;;;9.55;4.95;;;;;;;22.16;70.00;101011.63;5040240;28;20206;-70
2023/09/26 11:20:15;;;;;;;6.78;4.30;;;;;;;22.25;69.72;100997.03;5033797;28;20250;-71
2023/09/26 11:22:50;;;;;;;5.50;4.22;;;;;;;22.40;68.74;101005.59;5037319;28;20555;-69